createdAt,value
2022-08-21T00:00:25.358Z,8.65
2022-08-21T00:03:00.171Z,15.00
2022-08-21T00:05:29.216Z,13.77
2022-08-21T00:07:57.313Z,10.75
2022-08-21T00:10:25.707Z,11.40
2022-08-21T00:12:53.832Z,10.05
2022-08-21T00:15:27.138Z,9.68
2022-08-21T00:17:56.064Z,13.35
2022-08-21T00:20:24.546Z,13.07
2022-08-21T00:22:52.770Z,11.57
2022-08-21T00:25:25.910Z,11.63
2022-08-21T00:27:54.863Z,10.55
2022-08-21T00:30:24.353Z,13.73
2022-08-21T00:32:54.218Z,10.73
2022-08-21T00:35:25.406Z,14.07
2022-08-21T00:37:52.915Z,12.10
2022-08-21T00:40:24.827Z,16.63
2022-08-21T00:42:53.521Z,17.63
2022-08-21T00:45:23.621Z,12.40
2022-08-21T00:47:53.342Z,16.45
2022-08-21T00:50:22.427Z,13.68
2022-08-21T00:52:52.790Z,11.35
2022-08-21T00:55:23.491Z,12.75
2022-08-21T00:57:58.242Z,10.07
2022-08-21T01:00:31.456Z,10.88
2022-08-21T01:03:01.268Z,10.90
2022-08-21T01:05:29.217Z,15.50
2022-08-21T01:07:59.595Z,7.95
2022-08-21T01:10:27.497Z,9.63
2022-08-21T01:12:57.377Z,10.77
2022-08-21T01:15:29.720Z,9.63
2022-08-21T01:17:57.442Z,11.57
2022-08-21T01:20:32.328Z,7.80
2022-08-21T01:23:05.928Z,9.40
2022-08-21T01:25:35.535Z,13.15
2022-08-21T01:28:09.356Z,10.55
2022-08-21T01:30:38.656Z,18.38
2022-08-21T01:33:06.172Z,13.68
2022-08-21T01:35:33.783Z,11.27
2022-08-21T01:38:02.154Z,8.25
2022-08-21T01:40:29.711Z,11.10
2022-08-21T01:42:57.568Z,11.50
2022-08-21T01:45:25.274Z,11.10
2022-08-21T01:47:53.114Z,10.05
2022-08-21T01:50:21.716Z,10.93
2022-08-21T01:52:49.920Z,13.95
2022-08-21T01:55:19.194Z,9.18
2022-08-21T01:57:47.600Z,9.57
2022-08-21T02:00:17.655Z,7.68
2022-08-21T02:02:45.316Z,13.77
2022-08-21T02:05:14.081Z,12.10
2022-08-21T02:07:48.750Z,12.00
2022-08-21T02:10:19.790Z,11.73
2022-08-21T02:12:47.929Z,13.23
2022-08-21T02:15:15.692Z,12.32
2022-08-21T02:17:48.307Z,15.38
2022-08-21T02:20:40.395Z,11.48
2022-08-21T02:23:09.873Z,12.52
2022-08-21T02:25:37.603Z,14.70
2022-08-21T02:28:08.740Z,9.45
2022-08-21T02:30:40.454Z,8.23
2022-08-21T02:33:08.881Z,10.25
2022-08-21T02:35:37.602Z,8.60
2022-08-21T02:38:13.127Z,11.15
2022-08-21T02:40:47.870Z,10.15
2022-08-21T02:43:17.289Z,10.57
2022-08-21T02:45:46.028Z,11.98
2022-08-21T02:48:17.335Z,11.20
2022-08-21T02:50:52.988Z,11.88
2022-08-21T02:53:21.084Z,12.48
2022-08-21T02:55:51.127Z,13.68
2022-08-21T02:58:22.244Z,12.23
2022-08-21T03:00:50.810Z,13.70
2022-08-21T03:03:18.481Z,10.20
2022-08-21T03:05:46.126Z,19.10
2022-08-21T03:08:15.748Z,11.27
2022-08-21T03:10:47.450Z,13.05
2022-08-21T03:13:16.351Z,9.32
2022-08-21T03:15:43.980Z,11.82
2022-08-21T03:18:12.681Z,10.68
2022-08-21T03:20:42.506Z,12.50
2022-08-21T03:23:13.294Z,9.55
2022-08-21T03:25:44.536Z,12.85
2022-08-21T03:28:16.680Z,10.20
2022-08-21T03:30:47.444Z,13.05
2022-08-21T03:33:15.796Z,11.68
2022-08-21T03:35:50.147Z,9.00
2022-08-21T03:38:18.005Z,8.80
2022-08-21T03:40:45.485Z,15.85
2022-08-21T03:43:12.872Z,8.30
2022-08-21T03:45:41.025Z,10.70
2022-08-21T03:48:10.179Z,15.65
2022-08-21T03:50:41.520Z,11.60
2022-08-21T03:53:17.023Z,14.13
2022-08-21T03:55:50.672Z,10.57
2022-08-21T03:58:21.756Z,9.85
2022-08-21T04:00:53.390Z,13.48
2022-08-21T04:03:21.336Z,17.65
2022-08-21T04:05:48.788Z,10.77
2022-08-21T04:08:20.866Z,11.93
2022-08-21T04:10:51.170Z,9.77
2022-08-21T04:13:18.798Z,11.23
2022-08-21T04:15:46.443Z,14.40
2022-08-21T04:18:14.261Z,13.48
2022-08-21T04:20:45.350Z,13.43
2022-08-21T04:23:24.246Z,13.18
2022-08-21T04:25:53.768Z,13.43
2022-08-21T04:28:23.148Z,10.13
2022-08-21T04:30:53.219Z,12.82
2022-08-21T04:33:22.771Z,12.20
2022-08-21T04:35:51.576Z,12.68
2022-08-21T04:38:19.695Z,14.32
2022-08-21T04:40:49.607Z,9.63
2022-08-21T04:43:17.519Z,16.83
2022-08-21T04:45:48.987Z,13.95
2022-08-21T04:48:18.968Z,17.00
2022-08-21T04:51:11.859Z,10.35
2022-08-21T04:54:01.723Z,15.50
2022-08-21T04:56:36.585Z,15.70
2022-08-21T04:59:07.895Z,11.68
2022-08-21T05:01:38.904Z,12.05
2022-08-21T05:04:09.156Z,17.27
2022-08-21T05:06:38.416Z,12.02
2022-08-21T05:09:07.071Z,10.65
2022-08-21T05:11:36.111Z,15.70
2022-08-21T05:14:03.903Z,17.33
2022-08-21T05:16:37.401Z,16.35
2022-08-21T05:19:09.307Z,17.95
2022-08-21T05:21:40.468Z,12.65
2022-08-21T05:24:08.558Z,10.73
2022-08-21T05:26:45.523Z,16.85
2022-08-21T05:29:16.416Z,17.55
2022-08-21T05:31:45.206Z,13.25
2022-08-21T05:34:16.066Z,16.48
2022-08-21T05:36:43.781Z,15.13
2022-08-21T05:39:11.609Z,16.02
2022-08-21T05:41:39.520Z,13.65
2022-08-21T05:44:10.537Z,11.57
2022-08-21T05:46:39.237Z,18.70
2022-08-21T05:49:06.651Z,12.98
2022-08-21T05:51:34.064Z,17.17
2022-08-21T05:54:01.672Z,9.60
2022-08-21T05:56:29.121Z,14.55
2022-08-21T05:58:56.809Z,17.33
2022-08-21T06:01:24.656Z,14.80
2022-08-21T06:03:52.362Z,13.77
2022-08-21T06:06:24.316Z,17.60
2022-08-21T06:08:51.967Z,17.17
2022-08-21T06:11:20.839Z,13.45
2022-08-21T06:13:48.426Z,15.38
2022-08-21T06:16:17.315Z,12.32
2022-08-21T06:18:46.349Z,18.23
2022-08-21T06:21:14.747Z,13.73
2022-08-21T06:23:43.590Z,11.55
2022-08-21T06:26:13.523Z,13.55
2022-08-21T06:28:42.192Z,14.70
2022-08-21T06:31:21.317Z,17.23
2022-08-21T06:33:49.131Z,18.02
2022-08-21T06:36:16.965Z,15.13
2022-08-21T06:38:50.931Z,10.68
2022-08-21T06:41:24.152Z,14.98
2022-08-21T06:43:54.991Z,14.82
2022-08-21T06:46:23.295Z,19.30
2022-08-21T06:48:50.904Z,17.48
2022-08-21T06:51:18.381Z,16.33
2022-08-21T06:53:46.316Z,15.80
2022-08-21T06:56:13.967Z,18.83
2022-08-21T06:58:41.604Z,13.65
2022-08-21T07:01:09.184Z,14.95
2022-08-21T07:03:39.954Z,17.13
2022-08-21T07:06:09.501Z,19.85
2022-08-21T07:08:37.884Z,17.95
2022-08-21T07:11:12.435Z,17.30
2022-08-21T07:13:40.211Z,17.65
2022-08-21T07:16:09.255Z,17.25
2022-08-21T07:18:36.818Z,17.35
2022-08-21T07:21:07.119Z,14.93
2022-08-21T07:23:39.512Z,17.77
2022-08-21T07:26:07.720Z,18.65
2022-08-21T07:28:35.885Z,18.38
2022-08-21T07:31:04.732Z,19.13
2022-08-21T07:33:34.479Z,20.33
2022-08-21T07:36:02.508Z,14.02
2022-08-21T07:38:30.230Z,16.40
2022-08-21T07:41:00.385Z,14.68
2022-08-21T07:43:28.788Z,18.20
2022-08-21T07:45:56.460Z,16.85
2022-08-21T07:48:24.071Z,19.27
2022-08-21T07:50:52.272Z,26.15
2022-08-21T07:53:19.855Z,20.48
2022-08-21T07:55:47.300Z,19.85
2022-08-21T07:58:14.894Z,22.88
2022-08-21T08:00:42.657Z,16.10
2022-08-21T08:03:10.512Z,19.73
2022-08-21T08:05:40.278Z,21.73
2022-08-21T08:08:07.993Z,18.00
2022-08-21T08:10:38.340Z,20.38
2022-08-21T08:13:06.079Z,18.50
2022-08-21T08:15:38.378Z,16.08
2022-08-21T08:18:05.841Z,17.98
2022-08-21T08:20:34.069Z,19.83
2022-08-21T08:23:01.877Z,19.30
2022-08-21T08:25:36.639Z,16.33
2022-08-21T08:28:16.145Z,18.23
2022-08-21T08:30:47.271Z,23.17
2022-08-21T08:33:15.862Z,17.60
2022-08-21T08:35:46.954Z,17.08
2022-08-21T08:38:19.799Z,16.33
2022-08-21T08:41:03.210Z,18.55
2022-08-21T08:43:33.429Z,22.70
2022-08-21T08:46:05.504Z,22.70
2022-08-21T08:48:56.992Z,18.25
2022-08-21T08:51:34.208Z,24.65
2022-08-21T08:54:07.827Z,20.17
2022-08-21T08:56:36.637Z,21.73
2022-08-21T08:59:24.243Z,21.35
2022-08-21T09:01:52.948Z,17.45
2022-08-21T09:04:26.253Z,20.33
2022-08-21T09:07:14.746Z,24.83
2022-08-21T09:09:52.679Z,17.27
2022-08-21T09:12:45.037Z,19.67
2022-08-21T09:15:24.749Z,18.25
2022-08-21T09:18:10.186Z,16.90
2022-08-21T09:20:46.904Z,19.55
2022-08-21T09:23:47.889Z,24.92
2022-08-21T09:26:21.613Z,21.90
2022-08-21T09:28:59.880Z,22.52
2022-08-21T09:31:27.280Z,21.92
2022-08-21T09:34:12.704Z,20.75
2022-08-21T09:36:51.573Z,26.77
2022-08-21T09:39:31.298Z,21.58
2022-08-21T09:41:58.811Z,17.92
2022-08-21T09:44:33.535Z,25.35
2022-08-21T09:47:01.842Z,18.95
2022-08-21T09:49:35.581Z,18.73
2022-08-21T09:52:05.168Z,22.05
2022-08-21T09:54:40.180Z,19.88
2022-08-21T09:57:29.589Z,21.73
2022-08-21T09:59:57.262Z,22.40
2022-08-21T10:02:34.629Z,19.27
2022-08-21T10:05:09.288Z,18.52
2022-08-21T10:07:39.193Z,22.10
2022-08-21T10:10:10.892Z,23.15
2022-08-21T10:12:50.187Z,17.17
2022-08-21T10:15:32.551Z,18.92
2022-08-21T10:18:03.072Z,17.50
2022-08-21T10:20:57.059Z,15.90
2022-08-21T10:23:36.651Z,16.65
2022-08-21T10:26:21.722Z,20.55
2022-08-21T10:29:10.367Z,22.58
2022-08-21T10:31:38.106Z,15.20
2022-08-21T10:34:29.241Z,25.63
2022-08-21T10:37:16.564Z,20.17
2022-08-21T10:39:47.229Z,22.02
2022-08-21T10:42:14.672Z,24.13
2022-08-21T10:45:14.182Z,19.83
2022-08-21T10:47:58.056Z,22.27
2022-08-21T10:50:44.417Z,19.33
2022-08-21T10:53:27.056Z,19.02
2022-08-21T10:56:02.653Z,18.92
2022-08-21T10:58:38.190Z,21.42
2022-08-21T11:01:20.088Z,24.27
2022-08-21T11:03:55.425Z,20.13
2022-08-21T11:06:31.735Z,18.65
2022-08-21T11:09:08.115Z,16.15
2022-08-21T11:11:46.675Z,24.65
2022-08-21T11:14:39.268Z,21.50
2022-08-21T11:17:13.448Z,25.92
2022-08-21T11:19:53.122Z,22.35
2022-08-21T11:22:30.274Z,19.45
2022-08-21T11:25:36.532Z,23.65
2022-08-21T11:28:27.738Z,23.10
2022-08-21T11:31:13.926Z,20.30
2022-08-21T11:34:15.937Z,16.42
2022-08-21T11:37:30.185Z,19.77
2022-08-21T11:40:12.241Z,22.23
2022-08-21T11:42:57.916Z,22.45
2022-08-21T11:45:40.568Z,22.17
2022-08-21T11:48:26.720Z,20.50
2022-08-21T11:50:56.264Z,19.23
2022-08-21T11:53:31.617Z,18.88
2022-08-21T11:56:15.944Z,25.38
2022-08-21T11:58:49.080Z,18.98
2022-08-21T12:01:27.473Z,20.83
2022-08-21T12:04:05.563Z,15.30
2022-08-21T12:06:39.588Z,21.98
2022-08-21T12:09:33.532Z,21.00
2022-08-21T12:12:11.486Z,21.63
2022-08-21T12:14:51.373Z,20.65
2022-08-21T12:17:24.006Z,21.45
2022-08-21T12:20:16.549Z,22.73
2022-08-21T12:23:03.354Z,19.30
2022-08-21T12:25:43.276Z,24.95
2022-08-21T12:28:22.792Z,19.20
2022-08-21T12:30:53.872Z,26.52
2022-08-21T12:33:42.277Z,23.52
2022-08-21T12:36:16.631Z,22.40
2022-08-21T12:38:52.730Z,18.55
2022-08-21T12:41:45.230Z,26.83
2022-08-21T12:44:17.905Z,17.80
2022-08-21T12:46:57.080Z,19.10
2022-08-21T12:49:30.076Z,18.75
2022-08-21T12:52:25.907Z,17.35
2022-08-21T12:54:53.423Z,17.27
2022-08-21T12:57:29.382Z,26.38
2022-08-21T13:00:00.434Z,19.85
2022-08-21T13:02:40.543Z,20.55
2022-08-21T13:05:13.308Z,23.17
2022-08-21T13:07:47.013Z,16.92
2022-08-21T13:10:30.286Z,21.15
2022-08-21T13:13:00.654Z,21.85
2022-08-21T13:15:33.344Z,20.13
2022-08-21T13:18:03.672Z,19.20
2022-08-21T13:20:39.186Z,19.92
2022-08-21T13:23:30.827Z,22.17
2022-08-21T13:25:58.840Z,19.35
2022-08-21T13:28:34.761Z,20.80
2022-08-21T13:31:04.908Z,17.35
2022-08-21T13:33:35.152Z,20.65
2022-08-21T13:36:17.947Z,20.23
2022-08-21T13:38:46.495Z,23.42
2022-08-21T13:41:17.135Z,20.27
2022-08-21T13:43:51.852Z,20.48
2022-08-21T13:46:22.568Z,23.60
2022-08-21T13:48:51.268Z,19.23
2022-08-21T13:51:19.031Z,22.17
2022-08-21T13:53:53.387Z,20.48
2022-08-21T13:56:32.892Z,23.30
2022-08-21T13:59:01.663Z,23.08
2022-08-21T14:01:49.176Z,21.77
2022-08-21T14:04:23.205Z,16.27
2022-08-21T14:06:51.529Z,25.52
2022-08-21T14:09:36.921Z,19.35
2022-08-21T14:12:23.532Z,21.42
2022-08-21T14:14:52.709Z,15.10
2022-08-21T14:17:49.718Z,17.50
2022-08-21T14:20:33.634Z,20.15
2022-08-21T14:23:01.585Z,19.38
2022-08-21T14:25:43.647Z,22.17
2022-08-21T14:28:39.271Z,16.08
2022-08-21T14:31:15.876Z,17.30
2022-08-21T14:33:44.058Z,21.15
2022-08-21T14:36:11.720Z,17.40
2022-08-21T14:38:41.402Z,16.75
2022-08-21T14:41:30.611Z,23.70
2022-08-21T14:44:06.147Z,24.90
2022-08-21T14:46:55.812Z,36.53
2022-08-21T14:49:27.661Z,15.93
2022-08-21T14:51:58.904Z,24.77
2022-08-21T14:54:31.548Z,22.33
2022-08-21T14:57:12.108Z,33.25
2022-08-21T14:59:40.724Z,20.20
2022-08-21T15:02:09.648Z,21.98
2022-08-21T15:04:37.164Z,25.35
2022-08-21T15:07:05.952Z,18.73
2022-08-21T15:09:33.364Z,18.90
2022-08-21T15:12:03.199Z,13.82
2022-08-21T15:14:34.743Z,21.50
2022-08-21T15:17:04.522Z,24.25
2022-08-21T15:19:32.054Z,25.58
2022-08-21T15:22:00.445Z,19.20
2022-08-21T15:24:29.172Z,19.90
2022-08-21T15:26:57.999Z,21.33
2022-08-21T15:29:32.600Z,16.15
2022-08-21T15:32:23.466Z,21.33
2022-08-21T15:34:52.636Z,16.75
2022-08-21T15:37:20.926Z,29.05
2022-08-21T15:39:52.279Z,18.63
2022-08-21T15:42:22.815Z,19.13
2022-08-21T15:44:51.108Z,24.73
2022-08-21T15:47:23.120Z,22.60
2022-08-21T15:49:51.078Z,25.17
2022-08-21T15:52:21.334Z,22.42
2022-08-21T15:54:49.594Z,19.55
2022-08-21T15:57:20.384Z,16.52
2022-08-21T15:59:51.874Z,21.40
2022-08-21T16:02:31.533Z,23.33
2022-08-21T16:04:59.716Z,19.20
2022-08-21T16:07:27.362Z,20.15
2022-08-21T16:09:55.156Z,20.38
2022-08-21T16:12:34.219Z,16.42
2022-08-21T16:15:03.499Z,22.73
2022-08-21T16:17:36.421Z,22.60
2022-08-21T16:20:10.350Z,21.95
2022-08-21T16:22:44.467Z,14.35
2022-08-21T16:25:17.595Z,23.60
2022-08-21T16:27:50.728Z,23.92
2022-08-21T16:30:19.731Z,21.92
2022-08-21T16:32:48.203Z,21.90
2022-08-21T16:35:18.876Z,21.42
2022-08-21T16:37:49.978Z,25.63
2022-08-21T16:40:21.080Z,19.27
2022-08-21T16:42:49.050Z,21.77
2022-08-21T16:45:19.072Z,21.55
2022-08-21T16:47:47.186Z,16.75
2022-08-21T16:50:22.621Z,22.50
2022-08-21T16:52:51.049Z,21.23
2022-08-21T16:55:18.748Z,22.55
2022-08-21T16:57:46.446Z,19.00
2022-08-21T17:00:14.892Z,20.77
2022-08-21T17:02:53.783Z,25.70
2022-08-21T17:05:21.724Z,19.65
2022-08-21T17:07:49.259Z,27.60
2022-08-21T17:10:19.288Z,20.00
2022-08-21T17:12:56.098Z,20.85
2022-08-21T17:15:27.931Z,15.93
2022-08-21T17:17:56.829Z,17.98
2022-08-21T17:20:26.354Z,27.25
2022-08-21T17:22:54.468Z,23.20
2022-08-21T17:25:22.109Z,23.40
2022-08-21T17:27:50.863Z,22.38
2022-08-21T17:30:19.382Z,23.58
2022-08-21T17:32:49.827Z,28.33
2022-08-21T17:35:18.122Z,27.13
2022-08-21T17:37:45.693Z,26.08
2022-08-21T17:40:15.599Z,19.88
2022-08-21T17:42:45.412Z,19.13
2022-08-21T17:45:16.346Z,27.42
2022-08-21T17:47:44.105Z,21.42
2022-08-21T17:50:13.907Z,19.48
2022-08-21T17:52:44.655Z,15.88
2022-08-21T17:55:15.758Z,23.50
2022-08-21T17:57:45.410Z,24.00
2022-08-21T18:00:15.582Z,26.73
2022-08-21T18:02:46.292Z,25.73
2022-08-21T18:05:14.699Z,22.00
2022-08-21T18:07:42.873Z,30.23
2022-08-21T18:10:12.666Z,21.08
2022-08-21T18:12:43.585Z,23.83
2022-08-21T18:15:14.332Z,17.92
2022-08-21T18:17:47.146Z,21.55
2022-08-21T18:20:17.578Z,30.17
2022-08-21T18:22:45.934Z,23.05
2022-08-21T18:25:14.522Z,24.35
2022-08-21T18:27:46.231Z,21.30
2022-08-21T18:30:20.964Z,22.42
2022-08-21T18:32:49.884Z,18.02
2022-08-21T18:35:17.987Z,17.33
2022-08-21T18:37:45.494Z,16.85
2022-08-21T18:40:13.201Z,23.75
2022-08-21T18:42:55.200Z,27.10
2022-08-21T18:45:24.737Z,28.02
2022-08-21T18:47:54.737Z,20.02
2022-08-21T18:50:26.524Z,22.55
2022-08-21T18:52:54.509Z,26.02
2022-08-21T18:55:23.200Z,25.30
2022-08-21T18:57:54.394Z,28.48
2022-08-21T19:00:25.758Z,19.48
2022-08-21T19:02:54.062Z,27.83
2022-08-21T19:05:23.038Z,18.20
2022-08-21T19:07:51.856Z,21.88
2022-08-21T19:10:28.339Z,17.92
2022-08-21T19:12:59.925Z,20.10
2022-08-21T19:15:28.823Z,20.80
2022-08-21T19:17:58.349Z,26.08
2022-08-21T19:20:31.634Z,22.63
2022-08-21T19:22:59.489Z,21.65
2022-08-21T19:25:33.397Z,22.15
2022-08-21T19:28:11.046Z,22.30
2022-08-21T19:30:42.058Z,27.92
2022-08-21T19:33:23.742Z,26.35
2022-08-21T19:35:52.662Z,22.50
2022-08-21T19:38:21.149Z,20.35
2022-08-21T19:40:50.227Z,25.98
2022-08-21T19:43:23.244Z,22.10
2022-08-21T19:45:54.828Z,28.50
2022-08-21T19:48:24.042Z,26.25
2022-08-21T19:50:52.231Z,27.50
2022-08-21T19:53:20.066Z,24.52
2022-08-21T19:55:48.522Z,23.10
2022-08-21T19:58:27.578Z,32.42
2022-08-21T20:00:55.198Z,23.73
2022-08-21T20:03:22.956Z,23.60
2022-08-21T20:05:50.528Z,23.92
2022-08-21T20:08:20.281Z,23.27
2022-08-21T20:10:50.078Z,20.48
2022-08-21T20:13:24.176Z,20.85
2022-08-21T20:15:52.488Z,34.13
2022-08-21T20:21:08.576Z,22.90
2022-08-21T20:23:36.702Z,20.10
2022-08-21T20:26:14.910Z,20.83
2022-08-21T20:28:42.491Z,22.33
2022-08-21T20:31:11.415Z,23.70
2022-08-21T20:33:42.911Z,25.80
2022-08-21T20:36:10.583Z,26.25
2022-08-21T20:38:38.421Z,21.27
2022-08-21T20:41:21.117Z,25.08
2022-08-21T20:43:58.238Z,29.33
2022-08-21T20:46:27.762Z,22.88
2022-08-21T20:48:55.689Z,23.38
2022-08-21T20:51:33.820Z,23.83
2022-08-21T20:54:33.820Z,19.77
2022-08-21T20:57:30.723Z,24.48
2022-08-21T21:00:14.282Z,23.58
2022-08-21T21:03:12.309Z,22.90
2022-08-21T21:05:52.018Z,28.02
2022-08-21T21:08:27.568Z,23.25
2022-08-21T21:11:02.086Z,29.85
2022-08-21T21:13:32.677Z,20.08
2022-08-21T21:16:13.658Z,27.48
2022-08-21T21:18:54.288Z,26.40
2022-08-21T21:21:51.598Z,22.23
2022-08-21T21:24:27.732Z,28.25
2022-08-21T21:27:12.381Z,26.83
2022-08-21T21:29:45.490Z,21.48
2022-08-21T21:32:17.860Z,25.05
2022-08-21T21:34:50.973Z,23.55
2022-08-21T21:37:35.325Z,21.15
2022-08-21T21:40:27.593Z,19.92
2022-08-21T21:43:26.137Z,29.17
2022-08-21T21:45:53.577Z,26.60
2022-08-21T21:48:21.504Z,26.80
2022-08-21T21:51:12.241Z,20.65
2022-08-21T21:53:43.315Z,23.70
2022-08-21T21:59:51.639Z,25.02
2022-08-21T22:02:43.486Z,21.15
2022-08-21T22:05:17.097Z,20.40
2022-08-21T22:07:59.925Z,24.25
2022-08-21T22:11:08.898Z,28.05
2022-08-21T22:14:11.300Z,25.58
2022-08-21T22:16:41.226Z,24.48
2022-08-21T22:19:24.972Z,24.92
2022-08-21T22:22:04.784Z,29.45
2022-08-21T22:24:38.685Z,26.00
2022-08-21T22:27:13.656Z,30.30
2022-08-21T22:29:54.498Z,24.35
2022-08-21T22:32:25.702Z,21.48
2022-08-21T22:35:05.821Z,22.30
2022-08-21T22:37:48.759Z,20.38
2022-08-21T22:40:26.359Z,30.17
2022-08-21T22:43:07.438Z,27.90
2022-08-21T22:46:01.505Z,23.20
2022-08-21T22:48:32.349Z,25.52
2022-08-21T22:54:30.952Z,24.92
2022-08-21T22:57:05.281Z,20.88
2022-08-21T22:59:40.646Z,20.38
2022-08-21T23:02:31.448Z,24.50
2022-08-21T23:05:02.804Z,26.65
2022-08-21T23:07:32.748Z,25.60
2022-08-21T23:10:01.143Z,20.10
2022-08-21T23:12:39.714Z,24.98
2022-08-21T23:21:11.304Z,23.80
2022-08-21T23:23:52.582Z,23.17
2022-08-21T23:26:34.646Z,26.77
2022-08-21T23:29:07.772Z,22.65
2022-08-21T23:31:54.768Z,22.83
2022-08-21T23:35:00.629Z,28.23
2022-08-21T23:40:50.603Z,20.67
2022-08-21T23:43:57.754Z,34.00
2022-08-21T23:46:55.208Z,32.83
2022-08-21T23:49:43.896Z,20.90
2022-08-21T23:52:33.495Z,24.58
2022-08-21T23:55:28.427Z,24.50
2022-08-21T23:58:13.526Z,31.73
